createdAt,value
2018-07-28T00:05:06.445Z,7
2018-07-28T00:15:06.250Z,8
2018-07-28T00:25:06.434Z,6
2018-07-28T00:35:06.160Z,7
2018-07-28T00:45:06.121Z,8
2018-07-28T00:55:06.159Z,7
2018-07-28T01:05:20.828Z,7
2018-07-28T01:16:03.127Z,7
2018-07-28T01:25:06.993Z,7
2018-07-28T01:35:06.248Z,7
2018-07-28T01:45:06.133Z,7
2018-07-28T01:55:06.217Z,8
2018-07-28T02:05:06.227Z,7
2018-07-28T02:15:06.157Z,8
2018-07-28T02:25:06.228Z,8
2018-07-28T02:35:06.174Z,8
2018-07-28T02:45:06.193Z,7
2018-07-28T02:55:06.219Z,8
2018-07-28T03:05:06.121Z,8
2018-07-28T03:15:06.355Z,9
2018-07-28T03:25:06.228Z,9
2018-07-28T03:35:06.195Z,8
2018-07-28T03:45:06.176Z,8
2018-07-28T03:55:06.145Z,8
2018-07-28T04:05:06.258Z,9
2018-07-28T04:15:06.227Z,9
2018-07-28T04:25:06.228Z,9
2018-07-28T04:35:06.149Z,8
2018-07-28T04:45:06.161Z,8
2018-07-28T04:55:06.228Z,8
2018-07-28T05:05:06.246Z,8
2018-07-28T05:15:06.346Z,9
2018-07-28T05:25:12.956Z,9
2018-07-28T05:35:06.176Z,8
2018-07-28T05:45:06.281Z,10
2018-07-28T05:55:06.464Z,9
2018-07-28T06:05:06.223Z,9
2018-07-28T06:15:06.158Z,9
2018-07-28T06:25:06.238Z,9
2018-07-28T06:35:06.181Z,9
2018-07-28T06:45:06.575Z,10
2018-07-28T06:55:06.716Z,9
2018-07-28T07:05:06.726Z,9
2018-07-28T07:15:07.021Z,7
2018-07-28T07:25:07.300Z,8
2018-07-28T07:35:06.197Z,9
2018-07-28T07:45:06.958Z,10
2018-07-28T07:55:06.236Z,10
2018-07-28T08:05:07.382Z,11
2018-07-28T08:15:06.197Z,12
2018-07-28T08:25:06.213Z,11
2018-07-28T08:35:06.226Z,10
2018-07-28T08:45:06.221Z,11
2018-07-28T08:55:06.244Z,10
2018-07-28T09:05:06.189Z,11
2018-07-28T09:15:06.194Z,13
2018-07-28T09:25:06.310Z,12
2018-07-28T09:35:06.343Z,14
2018-07-28T09:45:06.646Z,12
2018-07-28T09:55:06.267Z,11
2018-07-28T10:05:06.276Z,12
2018-07-28T10:15:06.275Z,12
2018-07-28T10:25:06.245Z,13
2018-07-28T10:35:07.462Z,13
2018-07-28T10:45:06.241Z,13
2018-07-28T10:55:06.749Z,14
2018-07-28T11:05:06.202Z,13
2018-07-28T11:15:06.621Z,13
2018-07-28T11:25:06.555Z,13
2018-07-28T11:35:06.441Z,13
2018-07-28T11:45:06.234Z,14
2018-07-28T11:55:06.257Z,14
2018-07-28T12:05:06.254Z,13
2018-07-28T12:15:06.249Z,13
2018-07-28T12:25:06.240Z,14
2018-07-28T12:35:06.324Z,12
2018-07-28T12:45:06.244Z,11
2018-07-28T12:55:06.497Z,12
2018-07-28T13:05:06.350Z,9
2018-07-28T13:15:06.289Z,8
2018-07-28T13:25:06.307Z,6
2018-07-28T13:35:06.310Z,6
2018-07-28T13:45:06.350Z,6
2018-07-28T13:55:06.255Z,6
2018-07-28T14:05:06.259Z,6
2018-07-28T14:15:06.340Z,5
2018-07-28T14:25:06.395Z,5
2018-07-28T14:35:06.393Z,5
2018-07-28T14:45:06.382Z,6
2018-07-28T14:55:06.301Z,6
2018-07-28T15:05:06.502Z,6
2018-07-28T15:15:06.303Z,6
2018-07-28T15:25:06.337Z,5
2018-07-28T15:35:07.373Z,4
2018-07-28T15:45:06.647Z,6
2018-07-28T15:55:06.841Z,7
2018-07-28T16:05:06.819Z,9
2018-07-28T16:15:07.042Z,11
2018-07-28T16:25:06.305Z,10
2018-07-28T16:35:06.392Z,8
2018-07-28T16:45:06.890Z,7
2018-07-28T16:55:08.269Z,7
2018-07-28T17:05:07.138Z,7
2018-07-28T17:15:06.402Z,7
2018-07-28T17:25:06.576Z,6
2018-07-28T17:35:06.701Z,5
2018-07-28T17:45:06.440Z,5
2018-07-28T17:55:06.347Z,5
2018-07-28T18:05:06.307Z,5
2018-07-28T18:15:06.367Z,6
2018-07-28T18:25:06.378Z,6
2018-07-28T18:35:06.358Z,5
2018-07-28T18:45:06.392Z,5
2018-07-28T18:55:06.408Z,5
2018-07-28T19:05:06.388Z,6
2018-07-28T19:15:06.313Z,6
2018-07-28T19:25:06.348Z,6
2018-07-28T19:35:06.619Z,6
2018-07-28T19:45:06.518Z,6
2018-07-28T19:55:06.505Z,7
2018-07-28T20:05:06.429Z,7
2018-07-28T20:15:06.416Z,7
2018-07-28T20:25:06.381Z,9
2018-07-28T20:35:06.480Z,9
2018-07-28T20:45:06.332Z,9
2018-07-28T20:55:06.408Z,8
2018-07-28T21:05:06.328Z,8
2018-07-28T21:15:06.760Z,7
2018-07-28T21:25:06.362Z,8
2018-07-28T21:35:07.749Z,8
2018-07-28T21:45:06.401Z,8
2018-07-28T21:55:06.621Z,10
2018-07-28T22:05:06.553Z,9
2018-07-28T22:15:06.476Z,9
2018-07-28T22:25:06.402Z,10
2018-07-28T22:35:06.630Z,9
2018-07-28T22:45:06.407Z,11
2018-07-28T22:55:06.411Z,8
2018-07-28T23:05:07.144Z,10
2018-07-28T23:15:06.386Z,9
2018-07-28T23:25:06.372Z,9
2018-07-28T23:35:06.643Z,8
2018-07-28T23:45:22.445Z,11
2018-07-28T23:55:07.922Z,12
